Time;durP1;ratioP1;P1;durP2;ratioP2;P2;SDS_P1;SDS_P2;PMS_P1;PMS_P2;Temp;Humidity;BMP_temperature;BMP_pressure;BME280_temperature;BME280_humidity;BME280_pressure;Samples;Min_cycle;Max_cycle;Signal;HPM_P1;HPM_P2
2024/02/02 00:03:49;;;;;;;;;85.00;67.00;;;;;;;;6489966;39;8926;-66
2024/02/02 00:09:56;;;;;;;;;91.00;71.00;;;;;;;;6490483;46;9098;-68
2024/02/02 00:15:59;;;;;;;;;93.00;71.67;;;;;;;;6491642;46;8871;-68
2024/02/02 00:22:03;;;;;;;;;92.00;71.67;;;;;;;;6491323;39;8931;-67
2024/02/02 00:28:05;;;;;;;;;93.33;74.33;;;;;;;;6491145;46;8915;-68
2024/02/02 00:34:10;;;;;;;;;98.67;74.67;;;;;;;;6491613;46;8839;-68
2024/02/02 00:40:12;;;;;;;;;82.33;65.67;;;;;;;;6491305;46;9015;-69
2024/02/02 00:46:15;;;;;;;;;100.33;79.00;;;;;;;;6490960;39;8839;-69
2024/02/02 00:52:19;;;;;;;;;92.67;72.00;;;;;;;;6491219;39;8856;-67
2024/02/02 00:58:21;;;;;;;;;102.33;74.67;;;;;;;;6491311;46;8875;-66
2024/02/02 01:04:25;;;;;;;;;104.67;79.33;;;;;;;;6492025;39;8934;-68
2024/02/02 01:10:28;;;;;;;;;98.33;78.67;;;;;;;;6490964;31;8914;-67
2024/02/02 01:16:31;;;;;;;;;95.00;73.67;;;;;;;;6491352;46;8911;-67
2024/02/02 01:22:35;;;;;;;;;97.67;76.67;;;;;;;;6490647;39;8933;-66
2024/02/02 01:28:41;;;;;;;;;95.67;75.33;;;;;;;;6490981;46;9055;-68
2024/02/02 01:34:45;;;;;;;;;102.33;80.33;;;;;;;;6491685;39;9482;-67
2024/02/02 01:40:50;;;;;;;;;95.67;74.33;;;;;;;;6491400;46;8899;-67
2024/02/02 01:46:53;;;;;;;;;93.33;72.00;;;;;;;;6490687;39;8915;-67
2024/02/02 01:52:56;;;;;;;;;101.00;79.67;;;;;;;;6491536;39;8899;-67
2024/02/02 01:59:04;;;;;;;;;103.67;84.67;;;;;;;;6491517;39;8847;-67
2024/02/02 02:05:09;;;;;;;;;98.33;74.33;;;;;;;;6491443;39;8998;-66
2024/02/02 02:11:14;;;;;;;;;99.00;82.67;;;;;;;;6490514;46;8887;-70
2024/02/02 02:17:17;;;;;;;;;100.67;78.33;;;;;;;;6490595;46;8871;-66
2024/02/02 02:23:21;;;;;;;;;95.00;74.00;;;;;;;;6490673;39;8844;-67
2024/02/02 02:29:23;;;;;;;;;86.67;68.00;;;;;;;;6489793;39;8856;-66
2024/02/02 02:35:27;;;;;;;;;96.00;75.00;;;;;;;;6491095;39;8984;-66
2024/02/02 02:41:31;;;;;;;;;96.67;77.00;;;;;;;;6489230;39;9059;-66
2024/02/02 02:47:38;;;;;;;;;97.33;76.00;;;;;;;;6490692;31;8851;-66
2024/02/02 02:53:42;;;;;;;;;101.00;80.00;;;;;;;;6488834;46;8908;-67
2024/02/02 02:59:47;;;;;;;;;96.00;73.00;;;;;;;;6489566;46;9030;-66
2024/02/02 03:05:49;;;;;;;;;100.33;83.00;;;;;;;;6489124;46;8907;-67
2024/02/02 03:11:53;;;;;;;;;102.33;85.00;;;;;;;;6489836;39;8926;-67
2024/02/02 03:17:56;;;;;;;;;96.67;75.67;;;;;;;;6489568;47;8957;-65
2024/02/02 03:23:59;;;;;;;;;95.67;75.67;;;;;;;;6489767;31;8942;-68
2024/02/02 03:30:04;;;;;;;;;94.33;75.33;;;;;;;;6489379;47;8911;-66
2024/02/02 03:36:07;;;;;;;;;97.00;80.33;;;;;;;;6488761;39;8883;-66
2024/02/02 03:42:12;;;;;;;;;99.67;83.00;;;;;;;;6489403;47;8895;-66
2024/02/02 03:48:14;;;;;;;;;103.00;86.33;;;;;;;;6490824;46;8902;-67
2024/02/02 03:54:17;;;;;;;;;107.00;92.00;;;;;;;;6491279;39;8983;-67
2024/02/02 04:00:22;;;;;;;;;104.33;92.00;;;;;;;;6490991;39;9020;-68
2024/02/02 04:06:24;;;;;;;;;108.00;96.00;;;;;;;;6490853;46;8918;-68
2024/02/02 04:12:27;;;;;;;;;103.33;89.33;;;;;;;;6490829;46;8871;-69
2024/02/02 04:18:30;;;;;;;;;102.67;89.67;;;;;;;;6490367;39;8859;-68
2024/02/02 04:24:33;;;;;;;;;100.67;81.67;;;;;;;;6489204;46;8926;-68
2024/02/02 04:30:36;;;;;;;;;104.00;86.33;;;;;;;;6491095;31;9113;-68
2024/02/02 04:36:40;;;;;;;;;99.33;84.33;;;;;;;;6490521;39;8899;-68
2024/02/02 04:42:44;;;;;;;;;95.33;76.67;;;;;;;;6490605;39;8935;-68
2024/02/02 04:48:46;;;;;;;;;101.33;87.00;;;;;;;;6489312;46;8873;-69
2024/02/02 04:54:53;;;;;;;;;94.00;74.33;;;;;;;;6490542;46;8881;-69
2024/02/02 05:07:47;;;;;;;;;91.67;72.00;;;;;;;;6491783;46;9080;-69
2024/02/02 05:13:52;;;;;;;;;99.33;80.33;;;;;;;;6492827;31;8894;-68
2024/02/02 05:19:55;;;;;;;;;109.00;88.33;;;;;;;;6492325;46;8790;-68
